createdAt,value
2018-12-16T00:00:24.557Z,53.07
2018-12-16T00:01:36.460Z,53.22
2018-12-16T00:02:40.514Z,53.23
2018-12-16T00:03:44.629Z,53.15
2018-12-16T00:04:49.989Z,53.02
2018-12-16T00:05:54.423Z,52.91
2018-12-16T00:06:58.380Z,53.15
2018-12-16T00:08:02.479Z,52.92
2018-12-16T00:09:06.997Z,52.83
2018-12-16T00:10:10.985Z,53.17
2018-12-16T00:11:15.072Z,52.94
2018-12-16T00:12:19.230Z,53.16
2018-12-16T00:13:23.320Z,52.92
2018-12-16T00:14:27.400Z,52.96
2018-12-16T00:15:31.437Z,53.06
2018-12-16T00:16:35.479Z,52.81
2018-12-16T00:17:39.709Z,53.07
2018-12-16T00:18:43.696Z,52.83
2018-12-16T00:19:47.683Z,53.08
2018-12-16T00:20:51.753Z,53.21
2018-12-16T00:21:55.812Z,52.85
2018-12-16T00:22:59.891Z,53.00
2018-12-16T00:24:04.041Z,53.14
2018-12-16T00:25:08.447Z,52.89
2018-12-16T00:26:12.701Z,52.70
2018-12-16T00:27:17.011Z,52.87
2018-12-16T00:28:21.163Z,52.93
2018-12-16T00:29:25.287Z,53.00
2018-12-16T00:30:29.317Z,52.62
2018-12-16T00:31:33.270Z,52.86
2018-12-16T00:32:37.326Z,52.97
2018-12-16T00:33:41.397Z,52.97
2018-12-16T00:34:45.396Z,52.93
2018-12-16T00:35:49.454Z,52.82
2018-12-16T00:36:53.562Z,52.72
2018-12-16T00:37:57.674Z,52.77
2018-12-16T00:39:01.802Z,52.97
2018-12-16T00:40:06.641Z,53.05
2018-12-16T00:41:10.673Z,52.84
2018-12-16T00:42:14.853Z,52.99
2018-12-16T00:43:19.105Z,52.69
2018-12-16T00:44:23.221Z,52.54
2018-12-16T00:45:27.848Z,52.78
2018-12-16T00:46:32.505Z,52.52
2018-12-16T00:47:36.858Z,52.74
2018-12-16T00:48:41.210Z,52.91
2018-12-16T00:49:45.863Z,52.83
2018-12-16T00:50:50.108Z,52.86
2018-12-16T00:51:54.514Z,52.55
2018-12-16T00:52:58.728Z,52.57
2018-12-16T00:54:03.116Z,53.12
2018-12-16T00:55:07.454Z,52.86
2018-12-16T00:56:11.859Z,52.84
2018-12-16T00:57:16.263Z,52.84
2018-12-16T00:58:20.482Z,52.93
2018-12-16T00:59:24.649Z,52.55
2018-12-16T01:00:29.011Z,52.64
2018-12-16T01:01:33.361Z,52.85
2018-12-16T01:02:42.729Z,52.96
2018-12-16T01:03:46.830Z,52.60
2018-12-16T01:04:51.101Z,53.09
2018-12-16T01:05:55.197Z,52.93
2018-12-16T01:06:59.684Z,52.85
2018-12-16T01:08:03.717Z,52.74
2018-12-16T01:09:08.390Z,52.84
2018-12-16T01:10:13.221Z,53.09
2018-12-16T01:11:17.674Z,52.85
2018-12-16T01:12:22.406Z,52.89
2018-12-16T01:13:26.545Z,53.09
2018-12-16T01:14:30.868Z,52.97
2018-12-16T01:15:35.677Z,52.88
2018-12-16T01:16:39.940Z,52.92
2018-12-16T01:17:43.933Z,52.83
2018-12-16T01:18:48.098Z,52.98
2018-12-16T01:19:52.313Z,53.07
2018-12-16T01:20:56.487Z,53.09
2018-12-16T01:22:00.835Z,52.81
2018-12-16T01:23:05.103Z,53.16
2018-12-16T01:24:09.300Z,52.50
2018-12-16T01:25:13.413Z,52.81
2018-12-16T01:26:17.532Z,52.64
2018-12-16T01:27:21.720Z,53.13
2018-12-16T01:28:25.923Z,52.49
2018-12-16T01:29:30.191Z,52.84
2018-12-16T01:30:34.643Z,53.04
2018-12-16T01:31:38.856Z,53.01
2018-12-16T01:32:43.165Z,52.76
2018-12-16T01:33:47.414Z,52.79
2018-12-16T01:34:51.528Z,52.73
2018-12-16T01:35:55.731Z,52.72
2018-12-16T01:37:01.794Z,52.60
2018-12-16T01:38:05.997Z,52.45
2018-12-16T01:39:10.103Z,52.60
2018-12-16T01:40:14.381Z,52.72
2018-12-16T01:41:18.532Z,52.86
2018-12-16T01:42:22.637Z,52.99
2018-12-16T01:43:26.953Z,52.83
2018-12-16T01:44:31.050Z,53.12
2018-12-16T01:45:35.840Z,52.99
2018-12-16T01:46:39.994Z,52.69
2018-12-16T01:47:45.254Z,52.67
2018-12-16T01:48:49.502Z,52.94
2018-12-16T01:49:53.665Z,53.15
2018-12-16T01:50:57.794Z,53.22
2018-12-16T01:52:01.937Z,52.96
2018-12-16T01:53:06.093Z,53.23
2018-12-16T01:54:10.456Z,53.10
2018-12-16T01:55:14.719Z,52.90
2018-12-16T01:56:18.929Z,52.89
2018-12-16T01:57:23.051Z,52.91
2018-12-16T01:58:27.562Z,53.07
2018-12-16T01:59:32.592Z,52.94
2018-12-16T02:00:38.821Z,52.90
2018-12-16T02:01:47.113Z,53.29
2018-12-16T02:02:51.855Z,53.52
2018-12-16T02:03:56.117Z,53.46
2018-12-16T02:05:00.423Z,53.63
2018-12-16T02:06:04.692Z,54.18
2018-12-16T02:07:09.042Z,54.39
2018-12-16T02:08:13.165Z,54.70
2018-12-16T02:09:17.362Z,55.26
2018-12-16T02:10:21.490Z,55.63
2018-12-16T02:11:25.692Z,55.83
2018-12-16T02:12:29.855Z,56.32
2018-12-16T02:13:34.271Z,57.07
2018-12-16T02:14:39.021Z,57.23
2018-12-16T02:15:43.392Z,57.43
2018-12-16T02:16:47.569Z,57.53
2018-12-16T02:17:51.793Z,58.04
2018-12-16T02:18:55.978Z,57.99
2018-12-16T02:20:00.449Z,58.14
2018-12-16T02:21:04.740Z,58.43
2018-12-16T02:22:08.802Z,58.16
2018-12-16T02:23:13.080Z,58.61
2018-12-16T02:24:17.300Z,58.55
2018-12-16T02:25:21.462Z,59.15
2018-12-16T02:26:25.740Z,59.33
2018-12-16T02:27:29.949Z,59.54
2018-12-16T02:28:34.240Z,59.84
2018-12-16T02:29:38.385Z,59.87
2018-12-16T02:30:42.499Z,59.96
2018-12-16T02:31:46.747Z,60.46
2018-12-16T02:32:50.868Z,60.50
2018-12-16T02:33:55.610Z,60.87
2018-12-16T02:34:59.731Z,60.46
2018-12-16T02:36:03.801Z,60.98
2018-12-16T02:37:08.406Z,60.92
2018-12-16T02:38:12.559Z,60.93
2018-12-16T02:39:17.128Z,61.32
2018-12-16T02:40:21.415Z,61.13
2018-12-16T02:41:25.581Z,61.43
2018-12-16T02:42:29.728Z,61.38
2018-12-16T02:43:34.030Z,61.70
2018-12-16T02:44:38.255Z,61.34
2018-12-16T02:45:42.484Z,61.73
2018-12-16T02:46:46.542Z,61.60
2018-12-16T02:47:50.851Z,61.77
2018-12-16T02:48:55.109Z,62.12
2018-12-16T02:49:59.255Z,61.76
2018-12-16T02:51:03.477Z,62.19
2018-12-16T02:52:07.490Z,62.22
2018-12-16T02:53:11.777Z,61.88
2018-12-16T02:54:16.254Z,62.16
2018-12-16T02:55:20.343Z,61.82
2018-12-16T02:56:24.670Z,62.59
2018-12-16T02:57:28.873Z,62.38
2018-12-16T02:58:33.107Z,62.29
2018-12-16T02:59:37.534Z,62.36
2018-12-16T03:00:41.539Z,62.10
2018-12-16T03:01:48.097Z,62.52
2018-12-16T03:02:52.168Z,62.44
2018-12-16T03:03:56.389Z,62.38
2018-12-16T03:05:00.771Z,62.56
2018-12-16T03:06:05.170Z,62.72
2018-12-16T03:07:09.836Z,62.50
2018-12-16T03:08:14.088Z,62.67
2018-12-16T03:09:18.298Z,62.78
2018-12-16T03:10:22.631Z,62.48
2018-12-16T03:11:26.871Z,62.77
2018-12-16T03:12:31.011Z,63.33
2018-12-16T03:13:35.049Z,63.19
2018-12-16T03:14:39.423Z,62.74
2018-12-16T03:15:43.890Z,62.85
2018-12-16T03:16:48.692Z,63.09
2018-12-16T03:17:53.110Z,63.28
2018-12-16T03:18:57.401Z,63.32
2018-12-16T03:20:01.575Z,63.16
2018-12-16T03:21:05.873Z,63.31
2018-12-16T03:22:10.157Z,63.34
2018-12-16T03:23:14.458Z,63.11
2018-12-16T03:24:18.797Z,63.16
2018-12-16T03:25:22.826Z,63.31
2018-12-16T03:26:27.167Z,63.56
2018-12-16T03:27:31.811Z,63.44
2018-12-16T03:28:36.230Z,63.62
2018-12-16T03:29:41.127Z,63.71
2018-12-16T03:30:45.487Z,63.42
2018-12-16T03:31:49.809Z,63.66
2018-12-16T03:32:54.019Z,63.92
2018-12-16T03:33:58.448Z,64.00
2018-12-16T03:35:02.736Z,64.17
2018-12-16T03:36:06.889Z,64.04
2018-12-16T03:37:10.925Z,64.35
2018-12-16T03:38:15.072Z,64.19
2018-12-16T03:39:19.091Z,64.47
2018-12-16T03:40:23.210Z,64.37
2018-12-16T03:41:27.345Z,64.43
2018-12-16T03:42:31.360Z,64.23
2018-12-16T03:43:35.560Z,64.58
2018-12-16T03:44:39.630Z,64.79
2018-12-16T03:45:43.605Z,64.86
2018-12-16T03:46:47.701Z,65.37
2018-12-16T03:47:51.785Z,65.47
2018-12-16T03:48:55.742Z,65.08
2018-12-16T03:49:59.806Z,65.15
2018-12-16T03:51:03.900Z,65.01
2018-12-16T03:52:08.508Z,65.55
2018-12-16T03:53:19.438Z,65.38
2018-12-16T03:54:18.481Z,65.25
2018-12-16T03:55:22.552Z,65.65
2018-12-16T03:56:26.534Z,65.48
2018-12-16T03:57:30.765Z,65.82
2018-12-16T03:58:34.766Z,65.87
2018-12-16T03:59:38.854Z,65.77
2018-12-16T04:00:42.930Z,65.60
2018-12-16T04:01:52.501Z,66.00
2018-12-16T04:02:56.602Z,66.30
2018-12-16T04:04:00.629Z,66.10
2018-12-16T04:05:05.122Z,66.27
2018-12-16T04:06:09.164Z,66.34
2018-12-16T04:07:13.186Z,66.33
2018-12-16T04:08:17.225Z,66.71
2018-12-16T04:09:21.319Z,66.60
2018-12-16T04:10:25.289Z,66.74
2018-12-16T04:11:29.279Z,66.69
2018-12-16T04:12:33.250Z,67.15
2018-12-16T04:13:37.869Z,67.17
2018-12-16T04:14:42.168Z,67.10
2018-12-16T04:15:46.239Z,66.94
2018-12-16T04:16:50.402Z,67.25
2018-12-16T04:17:54.776Z,67.22
2018-12-16T04:18:58.816Z,67.02
2018-12-16T04:20:02.875Z,67.26
2018-12-16T04:21:07.082Z,66.90
2018-12-16T04:22:11.281Z,66.89
2018-12-16T04:23:15.587Z,67.16
2018-12-16T04:24:19.611Z,67.27
2018-12-16T04:25:23.782Z,67.42
2018-12-16T04:26:27.821Z,67.75
2018-12-16T04:27:32.670Z,67.39
2018-12-16T04:28:36.717Z,67.85
2018-12-16T04:29:40.839Z,67.78
2018-12-16T04:30:44.840Z,68.06
2018-12-16T04:31:48.964Z,67.62
2018-12-16T04:32:52.974Z,67.93
2018-12-16T04:33:56.977Z,67.82
2018-12-16T04:35:01.567Z,67.87
2018-12-16T04:36:05.706Z,68.01
2018-12-16T04:37:09.993Z,68.19
2018-12-16T04:38:14.250Z,68.05
2018-12-16T04:39:18.478Z,68.07
2018-12-16T04:40:22.549Z,68.31
2018-12-16T04:41:26.587Z,68.23
2018-12-16T04:42:30.583Z,68.66
2018-12-16T04:43:34.674Z,68.57
2018-12-16T04:44:38.720Z,68.11
2018-12-16T04:45:42.775Z,68.60
2018-12-16T04:46:46.886Z,68.52
2018-12-16T04:47:50.854Z,68.82
2018-12-16T04:48:54.917Z,68.73
2018-12-16T04:49:58.893Z,68.73
2018-12-16T04:51:03.022Z,69.10
2018-12-16T04:52:07.055Z,69.06
2018-12-16T04:53:11.110Z,68.99
2018-12-16T04:54:15.653Z,69.07
2018-12-16T04:55:19.839Z,69.21
2018-12-16T04:56:23.937Z,69.55
2018-12-16T04:57:28.062Z,69.46
2018-12-16T04:58:32.033Z,69.40
2018-12-16T04:59:36.054Z,69.20
2018-12-16T05:00:39.995Z,69.49
2018-12-16T05:01:44.053Z,69.38
2018-12-16T05:02:48.133Z,69.46
2018-12-16T05:03:52.189Z,69.80
2018-12-16T05:04:56.265Z,69.83
2018-12-16T05:06:00.262Z,69.66
2018-12-16T05:07:04.375Z,69.73
2018-12-16T05:08:08.627Z,69.99
2018-12-16T05:09:12.592Z,69.70
2018-12-16T05:10:26.549Z,69.87
2018-12-16T05:11:30.544Z,69.64
2018-12-16T05:12:34.505Z,69.58
2018-12-16T05:13:38.497Z,69.54
2018-12-16T05:14:42.489Z,69.81
2018-12-16T05:15:46.565Z,69.87
2018-12-16T05:16:50.574Z,69.47
2018-12-16T05:17:54.696Z,69.75
2018-12-16T05:18:58.921Z,69.43
2018-12-16T05:20:02.949Z,69.72
2018-12-16T05:21:07.238Z,69.52
2018-12-16T05:22:11.250Z,69.80
2018-12-16T05:23:15.269Z,69.75
2018-12-16T05:24:19.284Z,69.61
2018-12-16T05:25:23.536Z,69.79
2018-12-16T05:26:27.548Z,69.45
2018-12-16T05:27:31.530Z,69.56
2018-12-16T05:28:35.517Z,69.50
2018-12-16T05:29:39.489Z,69.44
2018-12-16T05:30:43.456Z,69.77
2018-12-16T05:31:47.453Z,69.78
2018-12-16T05:32:51.555Z,69.52
2018-12-16T05:33:55.562Z,69.40
2018-12-16T05:34:59.801Z,69.46
2018-12-16T05:36:03.849Z,69.29
2018-12-16T05:37:07.824Z,69.42
2018-12-16T05:38:11.786Z,69.52
2018-12-16T05:39:15.845Z,69.63
2018-12-16T05:40:19.894Z,69.52
2018-12-16T05:41:23.967Z,69.51
2018-12-16T05:42:27.968Z,69.50
2018-12-16T05:43:31.982Z,69.84
2018-12-16T05:44:36.153Z,69.58
2018-12-16T05:45:40.372Z,69.69
2018-12-16T05:46:44.349Z,69.63
2018-12-16T05:47:48.800Z,69.38
2018-12-16T05:48:52.848Z,69.47
2018-12-16T05:49:57.041Z,69.50
2018-12-16T05:51:01.443Z,69.28
2018-12-16T05:52:05.493Z,69.36
2018-12-16T05:53:09.463Z,69.55
2018-12-16T05:54:13.582Z,69.54
2018-12-16T05:55:17.692Z,69.78
2018-12-16T05:56:21.731Z,69.50
2018-12-16T05:57:25.875Z,69.57
2018-12-16T05:58:29.949Z,69.53
2018-12-16T05:59:34.090Z,69.54
2018-12-16T06:00:38.246Z,69.11
2018-12-16T06:01:42.264Z,69.32
2018-12-16T06:02:46.449Z,69.28
2018-12-16T06:03:50.449Z,69.44
2018-12-16T06:04:54.428Z,69.48
2018-12-16T06:05:58.509Z,69.12
2018-12-16T06:07:02.466Z,69.19
2018-12-16T06:08:06.503Z,69.10
2018-12-16T06:09:10.553Z,69.42
2018-12-16T06:10:14.521Z,69.30
2018-12-16T06:11:18.636Z,69.13
2018-12-16T06:12:22.699Z,68.81
2018-12-16T06:13:26.762Z,69.06
2018-12-16T06:14:30.765Z,68.67
2018-12-16T06:15:34.717Z,68.89
2018-12-16T06:16:38.838Z,69.09
2018-12-16T06:17:42.936Z,68.87
2018-12-16T06:18:47.066Z,68.85
2018-12-16T06:19:51.058Z,68.78
2018-12-16T06:20:55.081Z,68.88
2018-12-16T06:21:59.161Z,68.85
2018-12-16T06:23:03.841Z,68.72
2018-12-16T06:24:07.841Z,68.87
2018-12-16T06:25:11.996Z,68.77
2018-12-16T06:26:16.145Z,68.64
2018-12-16T06:27:20.168Z,68.75
2018-12-16T06:28:24.177Z,68.50
2018-12-16T06:29:28.188Z,68.55
2018-12-16T06:30:34.680Z,68.46
2018-12-16T06:31:38.833Z,68.28
2018-12-16T06:32:42.874Z,68.68
2018-12-16T06:33:46.978Z,68.36
2018-12-16T06:34:50.964Z,68.47
2018-12-16T06:35:54.977Z,68.58
2018-12-16T06:36:58.991Z,68.47
2018-12-16T06:38:03.040Z,68.68
2018-12-16T06:39:07.221Z,68.54
2018-12-16T06:40:11.196Z,68.50
2018-12-16T06:41:15.236Z,68.48
2018-12-16T06:42:19.308Z,68.32
2018-12-16T06:43:23.364Z,68.45
2018-12-16T06:44:27.393Z,68.23
2018-12-16T06:45:31.455Z,68.15
2018-12-16T06:46:35.441Z,68.11
2018-12-16T06:47:39.446Z,68.21
2018-12-16T06:48:43.486Z,68.34
2018-12-16T06:49:47.537Z,68.12
2018-12-16T06:50:51.577Z,68.23
2018-12-16T06:51:55.546Z,68.02
2018-12-16T06:52:59.563Z,68.27
2018-12-16T06:54:03.739Z,67.95
2018-12-16T06:55:07.855Z,67.71
2018-12-16T06:56:11.917Z,68.10
2018-12-16T06:57:15.905Z,67.92
2018-12-16T06:58:19.908Z,67.91
2018-12-16T06:59:23.988Z,67.67
2018-12-16T07:00:27.949Z,67.78
2018-12-16T07:01:31.943Z,67.84
2018-12-16T07:02:35.984Z,67.82
2018-12-16T07:03:40.109Z,67.98
2018-12-16T07:04:44.120Z,67.67
2018-12-16T07:05:48.244Z,67.70
2018-12-16T07:06:53.197Z,67.79
2018-12-16T07:07:57.841Z,67.67
2018-12-16T07:09:01.813Z,67.61
2018-12-16T07:10:06.037Z,67.30
2018-12-16T07:11:10.177Z,67.73
2018-12-16T07:12:14.206Z,67.22
2018-12-16T07:13:18.314Z,67.47
2018-12-16T07:14:22.361Z,67.39
2018-12-16T07:15:26.418Z,67.64
2018-12-16T07:16:30.524Z,67.50
2018-12-16T07:17:34.522Z,67.59
2018-12-16T07:18:38.573Z,67.46
2018-12-16T07:19:42.544Z,67.22
2018-12-16T07:20:46.562Z,67.45
2018-12-16T07:21:50.614Z,67.43
2018-12-16T07:22:54.792Z,67.51
2018-12-16T07:23:58.769Z,67.60
2018-12-16T07:25:02.916Z,67.24
2018-12-16T07:26:07.191Z,67.50
2018-12-16T07:27:11.191Z,67.37
2018-12-16T07:28:16.632Z,67.44
2018-12-16T07:29:20.860Z,67.09
2018-12-16T07:30:25.104Z,67.08
2018-12-16T07:31:29.160Z,67.14
2018-12-16T07:32:33.217Z,66.80
2018-12-16T07:33:37.292Z,67.21
2018-12-16T07:34:41.347Z,67.12
2018-12-16T07:35:45.393Z,66.94
2018-12-16T07:36:49.422Z,66.99
2018-12-16T07:37:53.516Z,67.22
2018-12-16T07:38:57.519Z,67.03
2018-12-16T07:40:01.538Z,67.17
2018-12-16T07:41:05.559Z,66.84
2018-12-16T07:42:09.741Z,66.93
2018-12-16T07:43:13.733Z,66.88
2018-12-16T07:44:17.721Z,66.81
2018-12-16T07:45:21.880Z,67.03
2018-12-16T07:46:25.962Z,66.77
2018-12-16T07:47:30.072Z,66.54
2018-12-16T07:48:34.183Z,66.78
2018-12-16T07:49:38.285Z,66.57
2018-12-16T07:50:42.404Z,66.70
2018-12-16T07:51:46.776Z,66.77
2018-12-16T07:52:50.920Z,66.67
2018-12-16T07:53:55.144Z,66.48
2018-12-16T07:54:59.130Z,66.40
2018-12-16T07:56:03.226Z,66.83
2018-12-16T07:57:07.223Z,66.81
2018-12-16T07:58:11.225Z,66.80
2018-12-16T07:59:15.469Z,66.56
2018-12-16T08:00:19.508Z,66.61
2018-12-16T08:01:23.532Z,66.71
2018-12-16T08:02:27.553Z,66.57
2018-12-16T08:03:31.777Z,66.67
2018-12-16T08:04:35.884Z,66.48
2018-12-16T08:05:39.968Z,66.76
2018-12-16T08:06:44.015Z,66.40
2018-12-16T08:07:47.980Z,66.59
2018-12-16T08:08:51.993Z,66.70
2018-12-16T08:09:55.981Z,66.33
2018-12-16T08:10:59.946Z,66.22
2018-12-16T08:12:03.998Z,66.85
2018-12-16T08:13:08.154Z,66.51
2018-12-16T08:14:12.222Z,66.07
2018-12-16T08:15:16.242Z,66.38
2018-12-16T08:16:20.297Z,66.33
2018-12-16T08:17:24.297Z,66.41
2018-12-16T08:18:28.416Z,66.19
2018-12-16T08:19:32.465Z,66.39
2018-12-16T08:20:36.444Z,66.01
2018-12-16T08:21:40.471Z,66.13
2018-12-16T08:22:44.459Z,66.51
2018-12-16T08:23:48.714Z,66.10
2018-12-16T08:24:52.727Z,66.00
2018-12-16T08:25:56.786Z,66.16
2018-12-16T08:27:00.878Z,66.24
2018-12-16T08:28:04.953Z,65.92
2018-12-16T08:29:08.918Z,66.21
2018-12-16T08:30:13.125Z,65.98
2018-12-16T08:31:17.177Z,66.27
2018-12-16T08:32:21.122Z,66.27
2018-12-16T08:33:25.250Z,66.13
2018-12-16T08:34:29.317Z,66.06
2018-12-16T08:35:33.404Z,66.22
2018-12-16T08:36:37.611Z,66.03
2018-12-16T08:37:41.662Z,66.06
2018-12-16T08:38:45.656Z,65.87
2018-12-16T08:39:50.776Z,66.24
2018-12-16T08:40:55.249Z,66.49
2018-12-16T08:41:59.896Z,66.29
2018-12-16T08:43:04.017Z,66.40
2018-12-16T08:44:08.074Z,66.01
2018-12-16T08:45:12.050Z,66.27
2018-12-16T08:46:16.054Z,65.95
2018-12-16T08:47:20.310Z,66.13
2018-12-16T08:48:24.275Z,66.47
2018-12-16T08:49:28.340Z,66.45
2018-12-16T08:50:32.381Z,66.25
2018-12-16T08:51:36.580Z,65.97
2018-12-16T08:52:40.568Z,66.26
2018-12-16T08:53:44.582Z,65.93
2018-12-16T08:54:48.586Z,65.87
2018-12-16T08:55:52.778Z,66.27
2018-12-16T08:56:56.912Z,66.05
2018-12-16T08:58:01.459Z,66.41
2018-12-16T08:59:05.527Z,66.30
2018-12-16T09:00:09.703Z,66.26
2018-12-16T09:01:13.665Z,65.99
2018-12-16T09:02:17.649Z,66.56
2018-12-16T09:03:21.718Z,66.47
2018-12-16T09:04:25.938Z,66.55
2018-12-16T09:05:29.968Z,66.22
2018-12-16T09:06:35.868Z,66.30
2018-12-16T09:07:40.216Z,66.17
2018-12-16T09:08:44.827Z,66.35
2018-12-16T09:09:49.039Z,66.54
2018-12-16T09:10:53.005Z,66.19
2018-12-16T09:11:56.983Z,66.39
2018-12-16T09:13:01.185Z,66.37
2018-12-16T09:14:05.262Z,66.41
2018-12-16T09:15:09.373Z,66.49
2018-12-16T09:16:13.395Z,66.65
2018-12-16T09:17:17.373Z,66.59
2018-12-16T09:18:21.479Z,66.45
2018-12-16T09:19:25.568Z,66.58
2018-12-16T09:20:29.641Z,66.69
2018-12-16T09:21:33.581Z,66.73
2018-12-16T09:22:37.577Z,66.43
2018-12-16T09:23:41.642Z,66.51
2018-12-16T09:24:45.597Z,66.54
2018-12-16T09:25:49.749Z,66.21
2018-12-16T09:26:53.699Z,66.60
2018-12-16T09:27:57.757Z,66.59
2018-12-16T09:29:01.741Z,66.53
2018-12-16T09:30:08.238Z,66.50
2018-12-16T09:31:12.208Z,66.03
2018-12-16T09:32:16.249Z,66.66
2018-12-16T09:33:20.417Z,66.55
2018-12-16T09:34:24.560Z,66.34
2018-12-16T09:35:28.547Z,66.28
2018-12-16T09:36:32.502Z,66.23
2018-12-16T09:37:36.466Z,66.32
2018-12-16T09:38:40.605Z,66.16
2018-12-16T09:39:44.699Z,66.31
2018-12-16T09:40:48.732Z,66.39
2018-12-16T09:41:52.785Z,66.57
2018-12-16T09:42:56.800Z,66.41
2018-12-16T09:44:00.780Z,66.63
2018-12-16T09:45:05.545Z,66.28
2018-12-16T09:46:09.647Z,66.33
2018-12-16T09:47:13.729Z,66.73
2018-12-16T09:48:24.622Z,66.49
2018-12-16T09:49:28.828Z,66.55
2018-12-16T09:50:32.942Z,66.43
2018-12-16T09:51:37.011Z,66.55
2018-12-16T09:52:40.981Z,66.62
2018-12-16T09:53:45.164Z,66.35
2018-12-16T09:54:49.357Z,66.34
2018-12-16T09:55:53.380Z,66.55
2018-12-16T09:56:57.455Z,66.38
2018-12-16T09:58:01.488Z,66.42
2018-12-16T09:59:05.573Z,66.70
2018-12-16T10:00:11.001Z,66.43
2018-12-16T10:01:15.024Z,66.58
2018-12-16T10:02:19.141Z,66.40
2018-12-16T10:03:23.169Z,66.65
2018-12-16T10:04:27.142Z,66.56
2018-12-16T10:05:31.168Z,66.29
2018-12-16T10:06:35.157Z,66.52
2018-12-16T10:07:39.309Z,66.63
2018-12-16T10:08:43.401Z,66.43
2018-12-16T10:09:47.353Z,66.53
2018-12-16T10:10:51.403Z,66.82
2018-12-16T10:11:55.389Z,66.61
2018-12-16T10:12:59.365Z,66.42
2018-12-16T10:14:03.459Z,66.84
2018-12-16T10:15:07.951Z,66.84
2018-12-16T10:16:11.913Z,66.65
2018-12-16T10:17:15.938Z,66.68
2018-12-16T10:18:19.954Z,66.50
2018-12-16T10:19:24.057Z,66.29
2018-12-16T10:20:28.256Z,66.65
2018-12-16T10:21:32.241Z,66.67
2018-12-16T10:22:36.230Z,66.29
2018-12-16T10:23:40.393Z,66.74
2018-12-16T10:24:51.027Z,66.62
2018-12-16T10:25:50.385Z,66.35
2018-12-16T10:26:54.416Z,66.19
2018-12-16T10:27:58.438Z,66.45
2018-12-16T10:29:02.417Z,66.24
2018-12-16T10:30:08.314Z,66.45
2018-12-16T10:31:12.488Z,66.24
2018-12-16T10:32:16.509Z,66.42
2018-12-16T10:33:20.481Z,66.51
2018-12-16T10:34:24.573Z,66.72
2018-12-16T10:35:28.641Z,66.19
2018-12-16T10:36:32.697Z,66.39
2018-12-16T10:37:36.762Z,65.93
2018-12-16T10:38:40.955Z,66.38
2018-12-16T10:39:45.026Z,66.47
2018-12-16T10:40:49.197Z,66.22
2018-12-16T10:41:53.219Z,66.34
2018-12-16T10:42:57.213Z,66.11
2018-12-16T10:44:01.266Z,66.05
2018-12-16T10:45:06.949Z,66.32
2018-12-16T10:46:11.136Z,66.66
2018-12-16T10:47:15.096Z,66.36
2018-12-16T10:48:19.512Z,66.76
2018-12-16T10:49:23.597Z,66.88
2018-12-16T10:50:27.722Z,66.53
2018-12-16T10:51:31.700Z,66.52
2018-12-16T10:52:35.670Z,66.55
2018-12-16T10:53:39.809Z,66.56
2018-12-16T10:54:43.783Z,66.38
2018-12-16T10:55:47.780Z,66.18
2018-12-16T10:56:51.787Z,66.78
2018-12-16T10:57:55.780Z,66.72
2018-12-16T10:58:59.787Z,66.68
2018-12-16T11:00:06.625Z,66.53
2018-12-16T11:01:16.230Z,66.15
2018-12-16T11:02:20.213Z,66.40
2018-12-16T11:03:24.189Z,66.38
2018-12-16T11:04:28.209Z,66.31
2018-12-16T11:05:32.425Z,66.20
2018-12-16T11:06:36.392Z,66.62
2018-12-16T11:07:40.386Z,66.60
2018-12-16T11:08:45.058Z,66.64
2018-12-16T11:09:49.154Z,66.48
2018-12-16T11:10:53.149Z,66.32
2018-12-16T11:11:57.236Z,66.78
2018-12-16T11:13:01.505Z,66.26
2018-12-16T11:14:05.617Z,66.41
2018-12-16T11:15:09.766Z,66.51
2018-12-16T11:16:13.800Z,66.49
2018-12-16T11:17:17.934Z,66.30
2018-12-16T11:18:21.927Z,66.32
2018-12-16T11:19:25.944Z,66.39
2018-12-16T11:20:29.973Z,66.13
2018-12-16T11:21:33.956Z,66.19
2018-12-16T11:22:37.958Z,66.61
2018-12-16T11:23:42.060Z,66.77
2018-12-16T11:24:46.048Z,66.68
2018-12-16T11:25:52.158Z,66.57
2018-12-16T11:26:56.189Z,66.71
2018-12-16T11:28:00.402Z,66.76
2018-12-16T11:29:04.437Z,66.85
2018-12-16T11:30:09.258Z,66.73
2018-12-16T11:31:13.325Z,66.36
2018-12-16T11:32:17.343Z,66.64
2018-12-16T11:33:21.691Z,66.45
2018-12-16T11:34:25.669Z,66.58
2018-12-16T11:35:29.682Z,66.37
2018-12-16T11:36:40.446Z,66.74
2018-12-16T11:37:44.609Z,66.78
2018-12-16T11:38:48.875Z,66.69
2018-12-16T11:39:53.570Z,66.50
2018-12-16T11:40:57.748Z,66.48
2018-12-16T11:42:01.831Z,66.47
2018-12-16T11:43:06.066Z,66.47
2018-12-16T11:44:10.096Z,66.62
2018-12-16T11:45:14.278Z,67.15
2018-12-16T11:46:18.481Z,66.84
2018-12-16T11:47:22.473Z,66.57
2018-12-16T11:48:26.718Z,66.95
2018-12-16T11:49:30.758Z,67.07
2018-12-16T11:50:34.869Z,66.99
2018-12-16T11:51:39.202Z,66.75
2018-12-16T11:52:43.282Z,66.74
2018-12-16T11:53:47.362Z,67.21
2018-12-16T11:54:51.437Z,66.97
2018-12-16T11:55:55.542Z,66.89
2018-12-16T11:56:59.463Z,66.87
2018-12-16T11:58:03.521Z,66.88
2018-12-16T11:59:07.541Z,66.78
2018-12-16T12:00:11.740Z,67.08
2018-12-16T12:01:15.950Z,67.07
2018-12-16T12:02:19.989Z,66.49
2018-12-16T12:03:23.976Z,67.39
2018-12-16T12:04:28.061Z,67.15
2018-12-16T12:05:32.108Z,67.20
2018-12-16T12:06:42.842Z,66.89
2018-12-16T12:07:46.858Z,67.02
2018-12-16T12:08:50.892Z,67.39
2018-12-16T12:09:54.967Z,67.36
2018-12-16T12:10:58.923Z,67.27
2018-12-16T12:12:03.048Z,66.88
2018-12-16T12:13:07.272Z,66.97
2018-12-16T12:14:11.442Z,67.18
2018-12-16T12:15:15.532Z,67.18
2018-12-16T12:16:19.845Z,67.48
2018-12-16T12:17:23.821Z,67.59
2018-12-16T12:18:28.077Z,67.02
2018-12-16T12:19:40.345Z,67.27
2018-12-16T12:20:44.376Z,67.17
2018-12-16T12:21:48.400Z,67.54
2018-12-16T12:22:52.493Z,67.39
2018-12-16T12:23:56.749Z,67.08
2018-12-16T12:25:00.753Z,67.66
2018-12-16T12:26:04.967Z,67.38
2018-12-16T12:27:09.016Z,67.34
2018-12-16T12:28:13.526Z,67.48
2018-12-16T12:29:17.777Z,67.30
2018-12-16T12:30:21.916Z,67.22
2018-12-16T12:31:26.891Z,67.42
2018-12-16T12:32:30.869Z,67.79
2018-12-16T12:33:34.831Z,67.81
2018-12-16T12:34:38.936Z,67.39
2018-12-16T12:35:42.997Z,67.87
2018-12-16T12:36:47.142Z,67.45
2018-12-16T12:37:51.317Z,67.92
2018-12-16T12:38:55.480Z,67.93
2018-12-16T12:39:59.511Z,67.21
2018-12-16T12:41:03.650Z,67.54
2018-12-16T12:42:07.701Z,67.34
2018-12-16T12:43:11.673Z,67.13
2018-12-16T12:44:15.672Z,67.33
2018-12-16T12:45:19.811Z,67.23
2018-12-16T12:46:24.192Z,67.49
2018-12-16T12:47:28.233Z,67.30
2018-12-16T12:48:32.466Z,67.54
2018-12-16T12:49:36.560Z,67.32
2018-12-16T12:50:40.554Z,67.62
2018-12-16T12:51:44.541Z,67.65
2018-12-16T12:52:48.553Z,67.29
2018-12-16T12:53:52.525Z,67.36
2018-12-16T12:54:56.589Z,67.78
2018-12-16T12:56:00.649Z,67.45
2018-12-16T12:57:04.877Z,67.25
2018-12-16T12:58:08.982Z,67.31
2018-12-16T12:59:13.012Z,67.38
2018-12-16T13:00:17.226Z,67.78
2018-12-16T13:01:21.469Z,67.23
2018-12-16T13:02:25.419Z,67.47
2018-12-16T13:03:29.437Z,67.21
2018-12-16T13:04:33.505Z,67.42
2018-12-16T13:05:37.679Z,67.83
2018-12-16T13:06:41.848Z,67.28
2018-12-16T13:07:46.090Z,67.44
2018-12-16T13:08:50.149Z,67.62
2018-12-16T13:09:54.245Z,67.36
2018-12-16T13:10:58.275Z,67.68
2018-12-16T13:12:02.499Z,67.38
2018-12-16T13:13:09.497Z,67.08
2018-12-16T13:14:13.581Z,67.43
2018-12-16T13:15:17.768Z,67.79
2018-12-16T13:16:21.747Z,67.98
2018-12-16T13:17:25.876Z,67.72
2018-12-16T13:18:29.874Z,67.75
2018-12-16T13:19:33.863Z,67.86
2018-12-16T13:20:37.920Z,67.83
2018-12-16T13:21:42.112Z,67.63
2018-12-16T13:22:46.389Z,67.68
2018-12-16T13:23:50.428Z,68.04
2018-12-16T13:25:05.801Z,68.34
2018-12-16T13:26:09.937Z,67.91
2018-12-16T13:27:13.976Z,68.12
2018-12-16T13:28:18.046Z,67.94
2018-12-16T13:29:22.048Z,67.56
2018-12-16T13:30:26.105Z,67.81
2018-12-16T13:31:30.158Z,68.17
2018-12-16T13:32:34.242Z,67.79
2018-12-16T13:33:38.474Z,67.66
2018-12-16T13:34:42.452Z,67.81
2018-12-16T13:35:46.517Z,68.18
2018-12-16T13:36:50.509Z,67.59
2018-12-16T13:37:54.481Z,67.75
2018-12-16T13:38:58.425Z,67.76
2018-12-16T13:40:02.413Z,67.98
2018-12-16T13:41:06.404Z,67.53
2018-12-16T13:42:10.413Z,67.98
2018-12-16T13:43:14.541Z,67.71
2018-12-16T13:44:18.519Z,67.88
2018-12-16T13:45:22.603Z,67.96
2018-12-16T13:46:26.982Z,67.47
2018-12-16T13:47:30.989Z,67.61